createdAt,value
2023-08-17T00:01:36.445Z,50.99
2023-08-17T00:04:03.307Z,51.02
2023-08-17T00:06:30.082Z,51.08
2023-08-17T00:08:57.228Z,51.18
2023-08-17T00:11:24.196Z,51.31
2023-08-17T00:13:51.266Z,51.28
2023-08-17T00:16:18.282Z,51.29
2023-08-17T00:18:45.198Z,51.44
2023-08-17T00:21:11.821Z,51.56
2023-08-17T00:23:38.458Z,51.48
2023-08-17T00:26:05.085Z,51.50
2023-08-17T00:28:31.721Z,51.62
2023-08-17T00:31:00.535Z,51.70
2023-08-17T00:33:27.212Z,51.76
2023-08-17T00:35:53.835Z,51.75
2023-08-17T00:38:20.698Z,51.86
2023-08-17T00:40:48.003Z,51.90
2023-08-17T00:43:15.015Z,51.97
2023-08-17T00:45:42.619Z,52.13
2023-08-17T00:48:10.709Z,52.20
2023-08-17T00:50:38.992Z,52.26
2023-08-17T00:53:05.872Z,52.17
2023-08-17T00:55:34.458Z,52.19
2023-08-17T00:58:01.761Z,52.29
2023-08-17T01:00:28.815Z,52.40
2023-08-17T01:02:56.598Z,52.36
2023-08-17T01:05:25.021Z,52.33
2023-08-17T01:07:51.769Z,52.31
2023-08-17T01:10:19.135Z,52.31
2023-08-17T01:13:12.169Z,52.41
2023-08-17T01:15:43.536Z,52.55
2023-08-17T01:18:27.798Z,52.74
2023-08-17T01:20:55.680Z,52.82
2023-08-17T01:23:23.850Z,52.96
2023-08-17T01:25:50.605Z,53.00
2023-08-17T01:28:17.300Z,53.14
2023-08-17T01:30:56.182Z,53.27
2023-08-17T01:33:49.408Z,53.29
2023-08-17T01:36:23.907Z,53.40
2023-08-17T01:38:53.532Z,53.41
2023-08-17T01:41:23.743Z,53.55
2023-08-17T01:43:51.206Z,53.57
2023-08-17T01:46:19.060Z,53.58
2023-08-17T01:48:46.619Z,53.70
2023-08-17T01:51:19.997Z,53.65
2023-08-17T01:53:47.296Z,53.73
2023-08-17T01:56:14.301Z,53.65
2023-08-17T01:58:40.986Z,53.62
2023-08-17T02:01:07.812Z,53.75
2023-08-17T02:03:34.541Z,53.86
2023-08-17T02:06:01.752Z,53.90
2023-08-17T02:08:28.492Z,54.06
2023-08-17T02:10:55.091Z,54.22
2023-08-17T02:13:22.020Z,54.29
2023-08-17T02:19:00.598Z,54.42
2023-08-17T02:21:27.267Z,54.41
2023-08-17T02:23:53.894Z,54.49
2023-08-17T02:26:21.956Z,54.50
2023-08-17T02:28:48.651Z,54.56
2023-08-17T02:31:15.278Z,54.60
2023-08-17T02:33:41.977Z,54.61
2023-08-17T02:36:08.665Z,54.53
2023-08-17T02:38:35.255Z,54.71
2023-08-17T02:41:01.878Z,54.99
2023-08-17T02:43:28.822Z,55.01
2023-08-17T02:45:55.513Z,55.00
2023-08-17T02:48:22.135Z,54.99
2023-08-17T02:50:48.783Z,54.89
2023-08-17T02:53:15.404Z,54.98
2023-08-17T02:55:42.357Z,55.05
2023-08-17T02:58:08.978Z,55.05
2023-08-17T03:00:35.655Z,55.01
2023-08-17T03:03:02.384Z,55.14
2023-08-17T03:05:29.049Z,55.19
2023-08-17T03:07:55.710Z,55.15
2023-08-17T03:10:22.312Z,55.21
2023-08-17T03:12:50.776Z,55.40
2023-08-17T03:15:17.992Z,55.56
2023-08-17T03:17:45.474Z,55.58
2023-08-17T03:20:12.343Z,55.60
2023-08-17T03:22:39.029Z,55.67
2023-08-17T03:25:06.724Z,55.74
2023-08-17T03:27:33.885Z,55.73
2023-08-17T03:30:01.268Z,55.89
2023-08-17T03:32:28.236Z,55.82
2023-08-17T03:34:54.891Z,55.89
2023-08-17T03:37:22.190Z,56.01
2023-08-17T03:39:48.867Z,56.02
2023-08-17T03:42:15.758Z,56.02
2023-08-17T03:44:42.392Z,56.10
2023-08-17T03:47:09.010Z,56.13
2023-08-17T03:49:35.700Z,56.19
2023-08-17T03:52:02.318Z,56.20
2023-08-17T03:54:29.023Z,56.07
2023-08-17T03:56:55.712Z,56.16
2023-08-17T03:59:22.480Z,56.08
2023-08-17T04:01:49.169Z,56.15
2023-08-17T04:04:15.886Z,56.26
2023-08-17T04:06:42.836Z,56.20
2023-08-17T04:09:09.470Z,56.20
2023-08-17T04:11:37.804Z,56.06
2023-08-17T04:14:05.024Z,56.13
2023-08-17T04:16:33.440Z,56.13
2023-08-17T04:19:00.583Z,56.07
2023-08-17T04:21:27.571Z,56.19
2023-08-17T04:23:54.447Z,56.24
2023-08-17T04:26:21.802Z,56.15
2023-08-17T04:28:48.508Z,56.10
2023-08-17T04:31:15.691Z,56.02
2023-08-17T04:33:42.466Z,56.08
2023-08-17T04:36:09.140Z,55.97
2023-08-17T04:38:35.788Z,55.88
2023-08-17T04:41:02.642Z,55.77
2023-08-17T04:43:29.291Z,55.89
2023-08-17T04:45:56.091Z,55.88
2023-08-17T04:48:22.792Z,55.93
2023-08-17T04:50:50.547Z,55.81
2023-08-17T04:53:17.424Z,56.02
2023-08-17T04:55:44.189Z,56.04
2023-08-17T04:58:11.630Z,56.09
2023-08-17T05:00:38.801Z,56.07
2023-08-17T05:03:06.916Z,55.95
2023-08-17T05:05:38.678Z,55.92
2023-08-17T05:08:07.289Z,55.92
2023-08-17T05:10:34.041Z,55.85
2023-08-17T05:13:00.728Z,55.83
2023-08-17T05:15:29.045Z,55.74
2023-08-17T05:17:57.508Z,55.58
2023-08-17T05:20:24.490Z,55.47
2023-08-17T05:22:51.171Z,55.45
2023-08-17T05:25:18.386Z,55.46
2023-08-17T05:27:45.187Z,55.57
2023-08-17T05:30:12.217Z,55.57
2023-08-17T05:32:38.865Z,55.51
2023-08-17T05:35:07.489Z,55.44
2023-08-17T05:37:34.175Z,55.57
2023-08-17T05:40:00.863Z,55.49
2023-08-17T05:42:27.530Z,55.49
2023-08-17T05:44:54.310Z,55.48
2023-08-17T05:47:23.025Z,55.34
2023-08-17T05:49:49.722Z,55.28
2023-08-17T05:52:16.413Z,55.24
2023-08-17T05:54:43.869Z,55.16
2023-08-17T05:57:11.800Z,55.10
2023-08-17T05:59:38.576Z,55.08
2023-08-17T06:02:05.411Z,55.03
2023-08-17T06:04:32.158Z,54.95
2023-08-17T06:06:58.835Z,54.87
2023-08-17T06:09:25.623Z,54.62
2023-08-17T06:11:52.224Z,54.58
2023-08-17T06:14:18.922Z,54.50
2023-08-17T06:16:45.649Z,54.32
2023-08-17T06:19:12.417Z,54.31
2023-08-17T06:21:39.070Z,54.34
2023-08-17T06:24:06.085Z,54.20
2023-08-17T06:26:32.858Z,53.80
2023-08-17T06:29:00.025Z,53.68
2023-08-17T06:31:28.674Z,53.58
2023-08-17T06:33:55.804Z,53.53
2023-08-17T06:36:22.719Z,53.34
2023-08-17T06:38:49.507Z,53.38
2023-08-17T06:41:17.317Z,53.19
2023-08-17T06:43:43.934Z,53.02
2023-08-17T06:46:10.734Z,52.95
2023-08-17T06:48:37.419Z,52.95
2023-08-17T06:51:05.890Z,52.83
2023-08-17T06:53:32.649Z,53.08
2023-08-17T06:56:02.462Z,52.90
2023-08-17T06:58:29.681Z,52.82
2023-08-17T07:00:56.872Z,52.60
2023-08-17T07:03:23.840Z,52.57
2023-08-17T07:05:50.659Z,52.58
2023-08-17T07:08:18.094Z,52.67
2023-08-17T07:10:47.563Z,52.76
2023-08-17T07:13:14.272Z,52.46
2023-08-17T07:15:41.251Z,51.90
2023-08-17T07:18:08.004Z,51.63
2023-08-17T07:20:34.791Z,50.97
2023-08-17T07:23:01.481Z,50.94
2023-08-17T07:25:28.182Z,51.10
2023-08-17T07:27:54.885Z,50.91
2023-08-17T07:30:21.534Z,50.59
2023-08-17T07:32:48.312Z,50.39
2023-08-17T07:35:15.083Z,50.20
2023-08-17T07:37:42.393Z,50.04
2023-08-17T07:40:10.989Z,49.69
2023-08-17T07:42:38.398Z,48.96
2023-08-17T07:45:07.408Z,48.89
2023-08-17T07:47:40.192Z,48.99
2023-08-17T07:50:08.043Z,48.79
2023-08-17T07:52:34.784Z,48.46
2023-08-17T07:55:01.668Z,48.44
2023-08-17T07:57:28.766Z,48.31
2023-08-17T07:59:55.896Z,48.06
2023-08-17T08:02:22.944Z,47.90
2023-08-17T08:04:49.600Z,48.38
2023-08-17T08:07:16.244Z,48.42
2023-08-17T08:09:42.896Z,47.97
2023-08-17T08:12:09.826Z,46.84
2023-08-17T08:14:36.863Z,46.62
2023-08-17T08:17:03.570Z,46.90
2023-08-17T08:19:30.273Z,46.72
2023-08-17T08:21:56.916Z,45.94
2023-08-17T08:24:36.612Z,45.24
2023-08-17T08:27:05.100Z,44.15
2023-08-17T08:29:31.753Z,43.90
2023-08-17T08:32:00.738Z,44.04
2023-08-17T08:34:27.454Z,44.22
2023-08-17T08:36:54.138Z,43.75
2023-08-17T08:39:20.793Z,44.12
2023-08-17T08:41:47.463Z,43.68
2023-08-17T08:44:14.254Z,43.27
2023-08-17T08:46:43.208Z,42.01
2023-08-17T08:49:11.477Z,41.94
2023-08-17T08:51:52.176Z,41.74
2023-08-17T08:54:23.469Z,41.12
2023-08-17T08:56:57.060Z,40.71
2023-08-17T08:59:24.892Z,40.69
2023-08-17T09:01:52.032Z,40.58
2023-08-17T09:04:18.905Z,40.51
2023-08-17T09:06:47.237Z,40.38
2023-08-17T09:09:17.732Z,40.51
2023-08-17T09:11:45.435Z,40.56
2023-08-17T09:14:12.297Z,40.32
2023-08-17T09:16:39.048Z,40.11
2023-08-17T09:19:08.899Z,39.78
2023-08-17T09:21:35.648Z,39.88
2023-08-17T09:24:02.551Z,40.37
2023-08-17T09:26:33.812Z,40.62
2023-08-17T09:29:01.235Z,39.40
2023-08-17T09:31:31.599Z,38.62
2023-08-17T09:33:58.302Z,38.73
2023-08-17T09:36:28.690Z,38.94
2023-08-17T09:38:58.520Z,38.74
2023-08-17T09:41:27.678Z,38.81
2023-08-17T09:43:56.321Z,39.78
2023-08-17T09:46:23.192Z,39.39
2023-08-17T09:48:49.936Z,38.75
2023-08-17T09:51:17.457Z,38.26
2023-08-17T09:53:44.261Z,37.96
2023-08-17T09:58:43.555Z,37.85
2023-08-17T10:01:11.403Z,37.11
2023-08-17T10:03:43.353Z,36.70
2023-08-17T10:06:13.312Z,37.07
2023-08-17T10:08:45.476Z,37.28
2023-08-17T10:11:16.000Z,36.96
2023-08-17T10:14:04.024Z,35.95
2023-08-17T10:16:37.673Z,34.97
2023-08-17T10:19:14.102Z,34.61
2023-08-17T10:21:47.866Z,34.64
2023-08-17T10:24:15.352Z,33.73
2023-08-17T10:26:43.429Z,34.09
2023-08-17T10:29:15.343Z,33.14
2023-08-17T10:31:48.714Z,32.33
2023-08-17T10:34:17.067Z,32.34
2023-08-17T10:36:44.201Z,32.55
2023-08-17T10:39:29.141Z,32.81
2023-08-17T10:41:58.178Z,32.38
2023-08-17T10:44:51.701Z,32.16
2023-08-17T10:47:27.738Z,32.03
2023-08-17T10:50:21.129Z,31.70
2023-08-17T10:52:51.485Z,30.70
2023-08-17T10:55:38.081Z,30.52
2023-08-17T10:58:15.284Z,29.58
2023-08-17T11:00:46.173Z,30.15
2023-08-17T11:03:29.985Z,30.17
2023-08-17T11:06:00.101Z,29.17
2023-08-17T11:08:42.593Z,28.13
2023-08-17T11:11:15.731Z,28.54
2023-08-17T11:13:49.320Z,28.50
2023-08-17T11:16:23.533Z,28.47
2023-08-17T11:18:52.751Z,28.95
2023-08-17T11:21:22.439Z,28.98
2023-08-17T11:23:52.396Z,29.21
2023-08-17T11:26:23.504Z,29.00
2023-08-17T11:28:51.967Z,29.01
2023-08-17T11:31:22.444Z,29.37
2023-08-17T11:33:55.814Z,29.49
2023-08-17T11:36:26.271Z,29.43
2023-08-17T11:38:55.785Z,29.58
2023-08-17T11:41:25.404Z,29.48
2023-08-17T11:43:55.906Z,29.82
2023-08-17T11:46:29.078Z,30.08
2023-08-17T11:49:02.480Z,30.13
2023-08-17T11:51:43.125Z,30.24
2023-08-17T12:01:51.207Z,30.92
2023-08-17T12:04:18.199Z,31.18
2023-08-17T12:06:48.786Z,31.18
2023-08-17T12:09:15.652Z,31.40
2023-08-17T12:11:42.718Z,31.19
2023-08-17T12:14:12.121Z,31.56
2023-08-17T12:16:49.825Z,32.01
2023-08-17T12:19:21.929Z,32.26
2023-08-17T12:21:52.333Z,32.20
2023-08-17T12:24:20.860Z,32.67
2023-08-17T12:26:48.190Z,32.48
2023-08-17T12:29:15.438Z,32.42
2023-08-17T12:31:42.257Z,32.71
2023-08-17T12:34:09.077Z,32.68
2023-08-17T12:36:36.821Z,32.90
2023-08-17T12:39:05.602Z,33.50
2023-08-17T12:41:32.584Z,33.32
2023-08-17T12:44:00.333Z,32.98
2023-08-17T12:46:32.547Z,32.75
2023-08-17T12:49:00.444Z,32.41
2023-08-17T12:51:27.461Z,32.63
2023-08-17T12:53:54.108Z,32.56
2023-08-17T12:56:20.880Z,32.52
2023-08-17T12:58:47.739Z,32.13
2023-08-17T13:01:15.291Z,31.61
2023-08-17T13:03:42.103Z,31.03
2023-08-17T13:06:09.321Z,30.85
2023-08-17T13:08:36.036Z,30.77
2023-08-17T13:11:02.664Z,30.62
2023-08-17T13:13:29.338Z,30.34
2023-08-17T13:15:56.091Z,30.08
2023-08-17T13:18:22.931Z,30.28
2023-08-17T13:20:49.549Z,30.58
2023-08-17T13:23:16.217Z,30.66
2023-08-17T13:25:43.678Z,30.70
2023-08-17T13:28:10.341Z,30.65
2023-08-17T13:30:36.958Z,30.72
2023-08-17T13:33:03.975Z,30.77
2023-08-17T13:35:30.777Z,31.15
2023-08-17T13:37:58.769Z,31.19
2023-08-17T13:40:25.963Z,30.89
2023-08-17T13:42:52.589Z,30.77
2023-08-17T13:45:19.222Z,30.51
2023-08-17T13:47:47.664Z,30.97
2023-08-17T13:50:14.326Z,31.39
2023-08-17T13:52:40.938Z,31.27
2023-08-17T13:55:07.986Z,31.12
2023-08-17T13:57:34.944Z,31.48
2023-08-17T14:00:01.658Z,31.62
2023-08-17T14:02:30.787Z,31.65
2023-08-17T14:04:58.171Z,31.69
2023-08-17T14:07:24.837Z,31.57
2023-08-17T14:10:05.586Z,31.31
2023-08-17T14:12:35.120Z,31.15
2023-08-17T14:15:01.908Z,31.28
2023-08-17T14:17:28.550Z,31.11
2023-08-17T14:19:56.086Z,31.29
2023-08-17T14:22:22.744Z,31.00
2023-08-17T14:24:49.759Z,31.13
2023-08-17T14:27:16.369Z,31.35
2023-08-17T14:29:48.034Z,31.23
2023-08-17T14:32:15.315Z,31.11
2023-08-17T14:34:41.955Z,30.91
2023-08-17T14:37:08.568Z,30.62
2023-08-17T14:39:37.568Z,30.75
2023-08-17T14:42:06.109Z,30.53
2023-08-17T14:44:35.555Z,30.46
2023-08-17T14:47:02.270Z,30.56
2023-08-17T14:49:28.887Z,30.34
2023-08-17T14:51:55.744Z,30.39
2023-08-17T14:54:22.418Z,30.53
2023-08-17T14:56:49.145Z,30.28
2023-08-17T14:59:15.811Z,30.20
2023-08-17T15:01:42.459Z,30.30
2023-08-17T15:04:09.101Z,30.23
2023-08-17T15:06:41.895Z,30.04
2023-08-17T15:09:09.011Z,29.71
2023-08-17T15:11:37.050Z,29.77
2023-08-17T15:14:03.825Z,29.99
2023-08-17T15:16:30.481Z,30.12
2023-08-17T15:18:57.267Z,30.29
2023-08-17T15:21:23.945Z,30.28
2023-08-17T15:23:50.711Z,30.31
2023-08-17T15:26:17.470Z,30.37
2023-08-17T15:28:44.517Z,30.49
2023-08-17T15:31:14.303Z,30.32
2023-08-17T15:33:41.648Z,30.45
2023-08-17T15:36:08.557Z,30.53
2023-08-17T15:38:35.483Z,30.80
2023-08-17T15:41:02.162Z,30.56
2023-08-17T15:43:28.837Z,30.67
2023-08-17T15:45:55.609Z,30.66
2023-08-17T15:48:22.333Z,30.70
2023-08-17T15:50:49.028Z,30.77
2023-08-17T15:53:15.709Z,30.78
2023-08-17T15:55:42.392Z,30.98
2023-08-17T15:58:10.839Z,30.94
2023-08-17T16:00:37.895Z,31.19
2023-08-17T16:03:05.107Z,31.33
2023-08-17T16:05:32.522Z,31.39
2023-08-17T16:07:59.476Z,31.54
2023-08-17T16:10:27.047Z,31.66
2023-08-17T16:12:53.704Z,31.85
2023-08-17T16:15:20.328Z,31.82
2023-08-17T16:17:47.087Z,32.06
2023-08-17T16:20:13.796Z,32.10
2023-08-17T16:22:40.597Z,32.30
2023-08-17T16:25:08.370Z,32.39
2023-08-17T16:27:38.803Z,32.44
2023-08-17T16:30:06.988Z,32.54
2023-08-17T16:32:33.675Z,32.52
2023-08-17T16:35:00.507Z,32.48
2023-08-17T16:37:27.309Z,32.72
2023-08-17T16:39:54.265Z,32.63
2023-08-17T16:42:20.952Z,32.83
2023-08-17T16:44:47.564Z,32.92
2023-08-17T16:47:19.911Z,33.03
2023-08-17T16:49:46.918Z,33.20
2023-08-17T16:52:13.584Z,33.38
2023-08-17T16:54:40.364Z,33.58
2023-08-17T16:57:07.055Z,33.75
2023-08-17T16:59:33.677Z,33.81
2023-08-17T17:02:00.445Z,34.05
2023-08-17T17:04:27.157Z,34.33
2023-08-17T17:06:53.832Z,34.31
2023-08-17T17:09:21.140Z,34.67
2023-08-17T17:11:47.894Z,34.78
2023-08-17T17:14:14.515Z,35.00
2023-08-17T17:16:41.183Z,35.06
2023-08-17T17:19:07.770Z,35.00
2023-08-17T17:21:34.641Z,35.17
2023-08-17T17:24:01.274Z,35.32
2023-08-17T17:26:28.055Z,35.46
2023-08-17T17:28:54.636Z,35.40
2023-08-17T17:31:21.334Z,35.50
2023-08-17T17:33:48.059Z,35.62
2023-08-17T17:36:14.685Z,35.78
2023-08-17T17:38:41.409Z,35.91
2023-08-17T17:41:08.113Z,36.16
2023-08-17T17:43:34.715Z,36.32
2023-08-17T17:46:01.376Z,36.53
2023-08-17T17:48:30.464Z,36.75
2023-08-17T17:50:57.166Z,36.96
2023-08-17T17:53:23.866Z,37.18
2023-08-17T17:55:50.543Z,37.31
2023-08-17T17:58:17.185Z,37.39
2023-08-17T18:00:44.095Z,37.62
2023-08-17T18:03:14.877Z,37.95
2023-08-17T18:05:46.620Z,38.04
2023-08-17T18:08:13.678Z,38.25
2023-08-17T18:10:42.002Z,38.36
2023-08-17T18:13:09.585Z,38.51
2023-08-17T18:15:39.375Z,38.77
2023-08-17T18:18:06.949Z,38.89
2023-08-17T18:20:34.153Z,39.14
2023-08-17T18:23:00.866Z,39.29
2023-08-17T18:25:28.159Z,39.49
2023-08-17T18:27:55.012Z,39.76
2023-08-17T18:30:23.215Z,39.87
2023-08-17T18:32:50.962Z,40.08
2023-08-17T18:35:18.941Z,40.20
2023-08-17T18:37:46.991Z,40.29
2023-08-17T18:40:13.750Z,40.45
2023-08-17T18:42:40.647Z,40.58
2023-08-17T18:45:08.325Z,40.74
2023-08-17T18:47:35.394Z,41.13
2023-08-17T18:50:02.364Z,41.14
2023-08-17T18:52:29.008Z,41.20
2023-08-17T18:55:03.990Z,41.44
2023-08-17T18:57:33.650Z,41.67
2023-08-17T19:00:02.667Z,41.72
2023-08-17T19:02:29.429Z,41.92
2023-08-17T19:05:01.201Z,42.08
2023-08-17T19:07:29.365Z,42.36
2023-08-17T19:09:56.276Z,42.45
2023-08-17T19:12:23.051Z,42.63
2023-08-17T19:14:52.841Z,42.91
2023-08-17T19:17:19.634Z,43.10
2023-08-17T19:19:46.431Z,43.16
2023-08-17T19:22:13.121Z,43.38
2023-08-17T19:24:40.003Z,43.46
2023-08-17T19:27:06.689Z,43.65
2023-08-17T19:29:33.488Z,43.99
2023-08-17T19:32:00.284Z,43.99
2023-08-17T19:34:26.954Z,43.98
2023-08-17T19:36:53.636Z,44.21
2023-08-17T19:39:20.339Z,44.26
2023-08-17T19:41:48.572Z,44.53
2023-08-17T19:44:15.708Z,44.74
2023-08-17T19:46:42.317Z,45.05
2023-08-17T19:49:09.488Z,45.05
2023-08-17T19:51:36.185Z,45.19
2023-08-17T19:54:02.876Z,45.28
2023-08-17T19:56:29.821Z,45.67
2023-08-17T19:58:56.499Z,45.65
2023-08-17T20:01:23.814Z,45.80
2023-08-17T20:03:52.791Z,45.79
2023-08-17T20:06:19.524Z,45.81
2023-08-17T20:08:46.795Z,46.09
2023-08-17T20:11:13.541Z,46.08
2023-08-17T20:13:40.201Z,46.21
2023-08-17T20:16:07.020Z,46.17
2023-08-17T20:18:34.096Z,46.19
2023-08-17T20:21:03.288Z,46.24
2023-08-17T20:23:30.711Z,46.26
2023-08-17T20:25:57.758Z,46.43
2023-08-17T20:28:27.565Z,46.58
2023-08-17T20:31:00.519Z,46.68
2023-08-17T20:33:28.068Z,46.80
2023-08-17T20:35:56.253Z,46.67
2023-08-17T20:38:24.555Z,46.85
2023-08-17T20:40:52.649Z,46.79
2023-08-17T20:43:19.983Z,46.79
2023-08-17T20:45:46.851Z,47.10
2023-08-17T20:48:13.822Z,46.96
2023-08-17T20:50:41.899Z,46.84
2023-08-17T20:53:09.334Z,46.90
2023-08-17T20:55:41.462Z,47.17
2023-08-17T20:58:08.941Z,47.26
2023-08-17T21:00:36.967Z,47.46
2023-08-17T21:03:07.626Z,47.61
2023-08-17T21:05:34.629Z,47.44
2023-08-17T21:08:02.815Z,47.61
2023-08-17T21:10:30.247Z,47.89
2023-08-17T21:13:00.004Z,47.80
2023-08-17T21:15:26.886Z,47.65
2023-08-17T21:17:53.740Z,47.82
2023-08-17T21:20:20.740Z,48.14
2023-08-17T21:22:52.508Z,48.21
2023-08-17T21:25:20.196Z,48.29
2023-08-17T21:27:47.870Z,48.24
2023-08-17T21:30:16.774Z,48.38
2023-08-17T21:32:43.989Z,48.42
2023-08-17T21:35:12.674Z,48.46
2023-08-17T21:37:42.087Z,48.27
2023-08-17T21:40:09.657Z,48.34
2023-08-17T21:42:36.405Z,48.71
2023-08-17T21:45:03.731Z,48.84
2023-08-17T21:47:30.832Z,48.79
2023-08-17T21:49:57.770Z,48.82
2023-08-17T21:52:24.719Z,48.76
2023-08-17T21:54:51.701Z,48.78
2023-08-17T21:57:18.851Z,48.93
2023-08-17T21:59:45.538Z,49.04
2023-08-17T22:02:12.197Z,49.03
2023-08-17T22:04:38.850Z,49.00
2023-08-17T22:07:05.581Z,49.08
2023-08-17T22:09:34.650Z,48.98
2023-08-17T22:12:02.369Z,48.97
2023-08-17T22:14:32.436Z,49.00
2023-08-17T22:16:59.481Z,49.07
2023-08-17T22:19:27.100Z,49.00
2023-08-17T22:21:54.707Z,49.34
2023-08-17T22:24:21.492Z,49.43
2023-08-17T22:26:48.540Z,49.38
2023-08-17T22:29:15.427Z,49.47
2023-08-17T22:31:44.314Z,49.49
2023-08-17T22:34:11.936Z,49.72
2023-08-17T22:36:38.990Z,49.66
2023-08-17T22:39:06.706Z,49.69
2023-08-17T22:41:33.805Z,49.94
2023-08-17T22:44:00.673Z,49.99
2023-08-17T22:46:27.488Z,49.77
2023-08-17T22:48:54.238Z,49.87
2023-08-17T22:51:20.939Z,49.93
2023-08-17T22:53:47.673Z,49.91
2023-08-17T22:56:14.405Z,50.19
2023-08-17T22:58:41.008Z,50.36
2023-08-17T23:01:08.762Z,50.32
2023-08-17T23:03:35.957Z,50.58
2023-08-17T23:06:02.933Z,50.80
2023-08-17T23:08:30.288Z,50.62
2023-08-17T23:11:03.924Z,50.21
2023-08-17T23:13:30.652Z,50.22
2023-08-17T23:15:57.418Z,50.37
2023-08-17T23:18:24.095Z,50.58
2023-08-17T23:20:51.027Z,50.66
2023-08-17T23:23:18.952Z,50.88
2023-08-17T23:25:45.712Z,50.99
2023-08-17T23:28:12.543Z,50.94
2023-08-17T23:30:40.666Z,51.03
2023-08-17T23:33:07.431Z,51.23
2023-08-17T23:35:35.106Z,51.32
2023-08-17T23:38:01.722Z,51.38
2023-08-17T23:40:28.356Z,51.53
2023-08-17T23:42:54.995Z,51.66
2023-08-17T23:45:21.656Z,51.96
2023-08-17T23:47:48.314Z,52.22
2023-08-17T23:50:15.273Z,52.51
2023-08-17T23:52:42.134Z,51.92
2023-08-17T23:55:09.054Z,50.87
2023-08-17T23:57:35.795Z,51.77
